Royse City, TX (75189)

2:54 PM CDT on October 01, 2014 (GMT -0500)
McKamy Meadows | Change Station
CLOSE
Current Station
Personal Weather Station
Location: Royse City, TX
Elevation: 553 ft
Nearby Weather Stations

Elev 553 ft 32.97 °N, 96.34 °W | Updated 12 seconds ago

Partly Cloudy
Partly Cloudy
93.0 °F
Feels Like 96 °F
N
8.3
Wind Variable Wind from WSW
Gusts 8.3 mph

Today
High -- | Low -- °F
--% Chance of Precip.
Yesterday
High -- | Low -- °F
Precip. -- in
7:19 AM 7:09 PM
Waxing Crescent, 50% visible
Pressure 29.78 in
Visibility 10.0 miles
Clouds Mostly Cloudy 5000 ft
Mostly Cloudy 7500 ft
Heat Index 96 °F
Dew Point 66 °F
Humidity 41%
Rainfall 0.00 in
Snow Depth Not available.
UV 3 out of 12
Pollen 9.10 out of 12
Ozone Good
PM2.5 Good
Flu Activity Not available.
METAR KF46 302035Z AUTO 14007KT 10SM BKN050 BKN075 33/19 A2978 RMK AO2 T03280191

More Conditions Fewer Conditions

Pressure 29.78 in
Visibility 10.0 miles
Clouds Mostly Cloudy 5000 ft
Mostly Cloudy 7500 ft
Heat Index 96 °F
Dew Point 66 °F
Humidity 41%
Rainfall 0.00 in
Snow Depth Not available.
UV 3 out of 12
Pollen 9.10 out of 12
Ozone Good
PM2.5 Good
Flu Activity Not available.
METAR KF46 302035Z AUTO 14007KT 10SM BKN050 BKN075 33/19 A2978 RMK AO2 T03280191

More Conditions Fewer Conditions

10-Day Weather Forecast

Almanac

Astronomy

Oct. 01, 2014 Rise Set
Actual Time 7:19 AM CDT 7:09 PM CDT
Civil Twilight 6:54 AM CDT 7:34 PM CDT
Nautical Twilight 6:26 AM CDT 8:02 PM CDT
Astronomical Twilight 5:57 AM CDT 8:31 PM CDT
Moon 2:08 PM CDT No Moon Set
Length of Visible Light 12h 39m
Length of Day
11h 50m
Tomorrow will be 2m 1s shorter.
Waxing Crescent, 50% of the Moon is Illuminated
Today
Waxing Crescent
Oct 8
Full
Oct 15
Last Quarter
Oct 23
New
Oct 30
First Quarter

Today's Extremes

State Highs State Lows

Community

WunderPhotos

Upload Photos

1,758,013 photos uploaded!

WunderBlogs® & News

By Dr. Jeff Masters
Director of Meteorology, Weather Underground
By Kari Strenfel
Meteorologist, Weather Underground
By Christopher C. Burt
Weather Historian, Weather Underground
October 1, 2014
October 1, 2014
October 1, 2014

Nearby

Air Quality

  Air Quality AQ Index Pollutant
Yesterday Good
PM2.5
Yesterday Good
OZONE
Current Good
OZONE
Current Good
PM2.5
Wednesday Good
OZONE
Wednesday Good
PM10
Thursday Good
OZONE
Thursday Good
PM10
Friday Good
OZONE
Friday Good
PM10
Saturday Good
OZONE
Saturday Good
PM10

Snow Depth

Station Depth Elevation
No new snow has been reported.

Earthquake Activity

City Distance Mag. Time & Date
No recent earthquake activity has been reported nearby.
Minimum magnitude displayed is 2.5.

Coastal Water Temperatures

Place Temperature
No Stations Reporting

Nearby Weather Stations